Time;durP1;ratioP1;P1;durP2;ratioP2;P2;SDS_P1;SDS_P2;PMS_P1;PMS_P2;Temp;Humidity;BMP_temperature;BMP_pressure;BME280_temperature;BME280_humidity;BME280_pressure;Samples;Min_cycle;Max_cycle;Signal;HPM_P1;HPM_P2
2024/02/16 00:01:14;;;;;;;16.30;13.00;;;;;;;11.11;54.13;101796.66;109443;1251;72691;-58
2024/02/16 00:03:42;;;;;;;16.60;12.10;;;;;;;11.05;54.11;101791.16;109432;1251;71422;-58
2024/02/16 00:06:11;;;;;;;17.30;13.40;;;;;;;10.99;54.32;101792.18;109433;1251;59285;-58
2024/02/16 00:08:40;;;;;;;14.70;12.30;;;;;;;10.98;54.44;101799.91;109309;1251;59031;-58
2024/02/16 00:11:07;;;;;;;17.30;13.20;;;;;;;11.00;54.32;101804.30;109301;1251;74684;-58
2024/02/16 00:13:35;;;;;;;16.50;13.90;;;;;;;11.00;54.25;101808.34;109413;1251;71539;-58
2024/02/16 00:16:03;;;;;;;17.30;12.70;;;;;;;10.96;54.00;101813.77;109105;1251;71441;-58
2024/02/16 00:18:30;;;;;;;18.40;13.00;;;;;;;10.87;53.93;101816.14;109396;1251;60306;-57
2024/02/16 00:20:58;;;;;;;18.60;14.10;;;;;;;10.77;54.00;101818.86;109281;1251;59299;-58
2024/02/16 00:23:26;;;;;;;17.20;12.70;;;;;;;10.67;54.01;101818.45;109142;1256;74893;-59
2024/02/16 00:25:54;;;;;;;16.10;12.30;;;;;;;10.63;54.38;101819.45;109416;1251;72919;-57
2024/02/16 00:28:21;;;;;;;16.30;12.30;;;;;;;10.65;54.31;101823.67;109205;1251;73116;-57
2024/02/16 00:30:49;;;;;;;15.00;11.30;;;;;;;10.64;54.18;101824.55;109393;1253;60552;-57
2024/02/16 00:33:18;;;;;;;15.90;12.30;;;;;;;10.62;54.28;101820.66;109413;1253;59986;-57
2024/02/16 00:35:48;;;;;;;16.60;11.70;;;;;;;10.64;54.41;101823.86;109369;1251;74777;-57
2024/02/16 00:38:16;;;;;;;14.60;11.40;;;;;;;10.65;54.23;101824.21;109235;1251;71392;-58
2024/02/16 00:40:44;;;;;;;14.20;11.20;;;;;;;10.61;54.06;101824.70;109432;1251;72726;-57
2024/02/16 00:43:12;;;;;;;14.90;10.40;;;;;;;10.59;54.25;101830.11;109370;1251;59104;-58
2024/02/16 00:45:44;;;;;;;14.00;9.70;;;;;;;10.56;54.09;101832.21;109007;1251;59029;-57
2024/02/16 00:48:11;;;;;;;14.20;10.00;;;;;;;10.50;54.18;101830.55;109171;1251;74197;-58
2024/02/16 00:50:42;;;;;;;15.60;10.30;;;;;;;10.47;54.25;101832.46;109239;1251;73388;-58
2024/02/16 00:53:10;;;;;;;14.90;9.40;;;;;;;10.51;54.36;101832.67;109317;1251;72796;-58
2024/02/16 00:55:41;;;;;;;12.60;9.60;;;;;;;10.59;54.36;101833.80;109152;1251;59462;-58
2024/02/16 00:58:09;;;;;;;14.50;10.50;;;;;;;10.62;54.27;101834.89;109435;1251;59296;-58
2024/02/16 01:00:37;;;;;;;14.00;9.50;;;;;;;10.68;54.17;101835.29;109418;1251;74694;-57
2024/02/16 01:03:05;;;;;;;13.30;9.60;;;;;;;10.71;53.96;101834.61;109420;1251;71583;-57
2024/02/16 01:05:33;;;;;;;11.50;9.00;;;;;;;10.71;53.61;101838.13;109295;1251;71233;-57
2024/02/16 01:08:01;;;;;;;13.00;8.80;;;;;;;10.66;53.28;101839.66;109440;1251;60156;-58
2024/02/16 01:10:29;;;;;;;10.80;8.50;;;;;;;10.55;53.16;101836.05;109418;1251;59408;-57
2024/02/16 01:12:56;;;;;;;10.50;8.70;;;;;;;10.43;53.30;101832.41;109432;1251;73466;-57
2024/02/16 01:15:24;;;;;;;12.70;8.70;;;;;;;10.34;53.37;101830.57;109444;1251;72820;-57
2024/02/16 01:17:52;;;;;;;11.20;9.00;;;;;;;10.30;53.46;101829.80;109393;1251;72762;-57
2024/02/16 01:20:20;;;;;;;11.70;9.00;;;;;;;10.25;53.47;101837.29;109382;1253;60099;-57
2024/02/16 01:22:48;;;;;;;11.20;8.60;;;;;;;10.20;53.71;101843.55;109148;1251;60081;-57
2024/02/16 01:25:15;;;;;;;13.10;9.80;;;;;;;10.18;53.77;101845.11;109413;1251;74741;-57
2024/02/16 01:27:43;;;;;;;12.20;8.70;;;;;;;10.15;53.87;101844.00;109475;1251;73745;-57
2024/02/16 01:30:12;;;;;;;12.00;9.30;;;;;;;10.15;53.91;101841.03;109402;1251;72678;-57
2024/02/16 01:32:40;;;;;;;10.50;8.60;;;;;;;10.14;53.86;101843.65;109394;1251;60789;-57
2024/02/16 01:35:08;;;;;;;11.30;9.00;;;;;;;10.13;53.94;101842.41;109433;1251;60179;-57
2024/02/16 01:37:36;;;;;;;11.60;8.50;;;;;;;10.16;54.20;101841.58;109381;1254;73376;-57
2024/02/16 01:40:04;;;;;;;11.50;9.00;;;;;;;10.23;54.22;101840.24;109406;1251;72850;-57
2024/02/16 01:42:31;;;;;;;12.00;8.80;;;;;;;10.31;54.06;101834.92;109066;1253;71378;-57
2024/02/16 01:45:00;;;;;;;11.30;9.30;;;;;;;10.37;53.83;101837.44;109355;1254;59758;-57
2024/02/16 01:47:28;;;;;;;10.80;9.10;;;;;;;10.36;53.72;101833.41;109382;1253;58942;-57
2024/02/16 01:49:55;;;;;;;11.60;9.60;;;;;;;10.37;53.83;101835.88;109141;1256;74741;-57
2024/02/16 01:52:23;;;;;;;12.90;9.90;;;;;;;10.41;53.83;101836.77;109424;1251;72721;-56
2024/02/16 01:54:51;;;;;;;12.90;9.00;;;;;;;10.44;53.73;101835.95;109413;1255;72078;-57
2024/02/16 01:57:18;;;;;;;15.00;9.80;;;;;;;10.46;53.88;101835.79;109268;1251;59166;-57
2024/02/16 01:59:46;;;;;;;13.30;9.50;;;;;;;10.52;53.73;101834.09;109442;1251;58942;-57
2024/02/16 02:02:14;;;;;;;11.50;9.20;;;;;;;10.58;53.57;101837.65;109400;1251;76746;-57
2024/02/16 02:04:42;;;;;;;13.00;9.80;;;;;;;10.61;53.33;101840.31;109319;1251;71574;-57
2024/02/16 02:07:13;;;;;;;11.40;8.70;;;;;;;10.60;53.32;101840.30;109422;1251;72757;-57
2024/02/16 02:09:41;;;;;;;9.80;8.40;;;;;;;10.65;53.45;101844.73;109409;1254;60202;-57
2024/02/16 02:12:09;;;;;;;12.80;8.50;;;;;;;10.71;53.39;101840.23;109479;1251;60016;-57
2024/02/16 02:14:37;;;;;;;11.90;9.60;;;;;;;10.79;53.19;101843.99;109378;1253;72374;-56
2024/02/16 02:17:05;;;;;;;10.20;8.20;;;;;;;10.86;53.01;101845.63;109399;1254;72363;-56
2024/02/16 02:19:32;;;;;;;10.80;8.70;;;;;;;10.91;52.87;101850.94;108987;1253;72928;-56
2024/02/16 02:22:01;;;;;;;12.30;9.70;;;;;;;10.98;52.97;101855.38;109083;1251;59049;-56
2024/02/16 02:24:28;;;;;;;10.30;7.90;;;;;;;11.05;52.66;101857.02;109435;1251;60074;-57
2024/02/16 02:26:57;;;;;;;11.00;8.50;;;;;;;11.04;52.32;101856.47;109416;1251;74732;-56
2024/02/16 02:29:25;;;;;;;13.10;9.00;;;;;;;11.03;52.48;101856.29;109459;1251;72861;-56
2024/02/16 02:31:52;;;;;;;12.70;8.70;;;;;;;11.03;52.20;101859.45;109458;1251;72748;-57
2024/02/16 02:34:20;;;;;;;10.80;8.40;;;;;;;10.98;52.13;101863.81;109140;1251;59481;-57
2024/02/16 02:36:48;;;;;;;13.10;8.80;;;;;;;10.90;51.99;101864.80;109356;1251;59370;-57
2024/02/16 02:39:16;;;;;;;17.60;9.40;;;;;;;10.78;52.01;101867.48;109432;1251;74713;-57
2024/02/16 02:41:44;;;;;;;11.70;9.00;;;;;;;10.65;52.25;101869.48;109450;1251;73417;-56
2024/02/16 02:44:11;;;;;;;12.20;9.70;;;;;;;10.54;52.64;101872.54;109043;1251;70842;-58
2024/02/16 02:46:39;;;;;;;12.20;9.30;;;;;;;10.54;52.58;101874.11;109434;1251;58981;-57
2024/02/16 02:49:06;;;;;;;19.40;11.20;;;;;;;10.54;52.40;101876.21;109182;1250;59013;-56
2024/02/16 02:51:34;;;;;;;12.30;9.60;;;;;;;10.51;52.27;101881.79;109414;1251;74006;-57
2024/02/16 02:54:03;;;;;;;13.20;9.00;;;;;;;10.44;52.24;101882.42;109408;1251;74503;-57
2024/02/16 02:56:31;;;;;;;15.00;10.90;;;;;;;10.35;52.20;101887.23;109127;1251;72751;-57
2024/02/16 02:58:58;;;;;;;17.80;11.20;;;;;;;10.24;52.31;101885.51;109427;1251;59013;-57
2024/02/16 03:01:26;;;;;;;15.50;10.30;;;;;;;10.16;52.59;101886.27;109405;1251;59039;-57
2024/02/16 03:03:53;;;;;;;14.50;10.40;;;;;;;10.17;52.75;101888.23;109396;1251;74766;-57
2024/02/16 03:06:23;;;;;;;16.50;10.50;;;;;;;10.20;52.63;101888.27;108909;1251;71940;-57
2024/02/16 03:08:51;;;;;;;17.10;10.70;;;;;;;10.21;52.58;101886.70;109379;1251;71454;-57
2024/02/16 03:11:18;;;;;;;16.50;11.10;;;;;;;10.25;52.67;101884.45;109357;1253;59093;-57
2024/02/16 03:13:47;;;;;;;14.30;10.50;;;;;;;10.28;52.40;101879.76;109413;1251;60098;-57
2024/02/16 03:16:15;;;;;;;15.70;10.80;;;;;;;10.29;52.49;101881.35;109421;1254;75081;-56
2024/02/16 03:18:44;;;;;;;15.70;10.60;;;;;;;10.28;52.18;101886.77;109442;1251;72830;-56
2024/02/16 03:21:17;;;;;;;16.10;10.10;;;;;;;10.22;52.02;101892.67;109395;1251;72332;-56
2024/02/16 03:23:45;;;;;;;14.60;10.30;;;;;;;10.15;52.06;101897.50;109435;1251;59309;-56
2024/02/16 03:26:17;;;;;;;16.00;11.50;;;;;;;10.03;52.19;101904.70;109146;1251;59075;-57
2024/02/16 03:28:48;;;;;;;14.50;10.50;;;;;;;9.95;52.28;101906.88;109367;1254;72464;-57
2024/02/16 03:31:17;;;;;;;14.10;10.50;;;;;;;9.94;52.28;101907.90;109397;1251;72888;-57
2024/02/16 03:33:45;;;;;;;16.20;11.10;;;;;;;9.88;52.38;101908.71;109395;1251;73059;-57
2024/02/16 03:36:14;;;;;;;14.90;10.40;;;;;;;9.85;52.55;101913.06;109114;1251;59263;-57
2024/02/16 03:38:43;;;;;;;16.00;10.40;;;;;;;9.85;52.48;101913.04;109339;1251;58968;-57
2024/02/16 03:41:15;;;;;;;13.70;10.40;;;;;;;9.82;52.56;101913.38;109387;1251;74712;-57
2024/02/16 03:43:43;;;;;;;16.20;10.20;;;;;;;9.80;52.55;101914.39;109438;1251;71556;-59
2024/02/16 03:46:11;;;;;;;15.10;9.70;;;;;;;9.80;52.38;101916.33;109336;1254;72363;-57
2024/02/16 03:48:39;;;;;;;13.50;10.20;;;;;;;9.75;52.27;101919.05;109403;1254;59155;-57
2024/02/16 03:51:07;;;;;;;12.20;10.30;;;;;;;9.69;52.44;101919.66;109370;1251;58961;-58
2024/02/16 03:53:35;;;;;;;15.00;10.20;;;;;;;9.71;52.51;101918.11;109377;1254;73462;-58
2024/02/16 03:56:03;;;;;;;13.00;9.60;;;;;;;9.74;52.46;101913.94;109005;1254;72837;-58
2024/02/16 03:58:31;;;;;;;15.10;10.90;;;;;;;9.79;52.35;101919.11;109372;1254;70635;-58
2024/02/16 04:00:58;;;;;;;12.30;9.30;;;;;;;9.78;52.10;101917.33;109420;1254;60066;-58
2024/02/16 04:03:26;;;;;;;13.00;9.90;;;;;;;9.76;52.03;101920.63;109424;1254;58893;-58
2024/02/16 04:05:55;;;;;;;16.00;10.00;;;;;;;9.74;52.03;101919.73;109377;1251;73432;-58
2024/02/16 04:08:23;;;;;;;14.70;10.10;;;;;;;9.70;52.09;101917.40;109383;1253;73296;-58
2024/02/16 04:10:50;;;;;;;13.40;10.10;;;;;;;9.66;52.31;101916.98;109193;1254;73162;-58
2024/02/16 04:13:18;;;;;;;16.80;10.70;;;;;;;9.68;52.15;101918.60;109427;1254;59176;-58
2024/02/16 04:15:46;;;;;;;15.60;10.70;;;;;;;9.67;52.13;101920.16;109428;1254;58947;-58
2024/02/16 04:18:18;;;;;;;17.00;11.90;;;;;;;9.71;52.10;101922.14;109237;1251;75372;-58
2024/02/16 04:20:46;;;;;;;13.50;9.50;;;;;;;9.75;51.98;101929.55;109424;1251;72836;-58
2024/02/16 04:23:14;;;;;;;16.20;11.50;;;;;;;9.77;51.88;101930.64;109415;1252;73629;-58
2024/02/16 04:25:42;;;;;;;15.60;10.30;;;;;;;9.77;51.79;101930.82;109450;1251;60146;-59
2024/02/16 04:28:09;;;;;;;13.50;9.70;;;;;;;9.78;52.12;101925.58;109461;1250;58945;-59
2024/02/16 04:30:37;;;;;;;12.70;9.40;;;;;;;9.89;52.09;101930.48;109422;1251;74727;-58
2024/02/16 04:33:05;;;;;;;15.40;10.30;;;;;;;9.98;51.76;101931.10;109299;1251;72312;-58
2024/02/16 04:35:33;;;;;;;14.30;10.60;;;;;;;9.97;51.52;101931.79;109380;1251;73119;-57
2024/02/16 04:38:01;;;;;;;11.70;9.00;;;;;;;9.90;51.27;101934.51;109387;1252;60099;-57
2024/02/16 04:40:32;;;;;;;15.00;10.20;;;;;;;9.80;51.39;101934.36;109185;1251;60102;-56
2024/02/16 04:43:01;;;;;;;14.10;9.80;;;;;;;9.76;51.35;101936.41;108995;1260;74772;-56
2024/02/16 04:45:30;;;;;;;12.70;9.20;;;;;;;9.70;51.37;101937.02;109431;1251;71694;-55
2024/02/16 04:47:59;;;;;;;15.70;11.10;;;;;;;9.67;51.27;101936.63;109375;1251;72830;-55
2024/02/16 04:50:27;;;;;;;17.50;9.30;;;;;;;9.64;51.27;101944.11;109244;1251;59313;-55
2024/02/16 04:52:55;;;;;;;14.40;9.70;;;;;;;9.61;51.19;101951.23;108975;1251;59104;-55
2024/02/16 04:55:23;;;;;;;13.50;9.80;;;;;;;9.57;51.14;101957.50;109376;1254;73332;-56
2024/02/16 04:57:51;;;;;;;13.90;10.20;;;;;;;9.50;51.29;101960.02;109159;1251;71680;-57
2024/02/16 05:00:18;;;;;;;11.90;9.40;;;;;;;9.51;51.29;101963.71;109390;1254;72725;-57
2024/02/16 05:02:46;;;;;;;11.10;8.10;;;;;;;9.53;51.18;101967.95;109366;1254;60177;-57
2024/02/16 05:05:15;;;;;;;11.10;9.00;;;;;;;9.53;51.16;101969.87;109398;1253;58978;-57
2024/02/16 05:07:43;;;;;;;10.00;7.80;;;;;;;9.52;51.00;101970.38;109370;1251;74765;-57
2024/02/16 05:10:10;;;;;;;11.30;7.80;;;;;;;9.51;50.88;101973.15;109462;1251;72273;-57
2024/02/16 05:12:38;;;;;;;11.00;7.90;;;;;;;9.47;50.68;101981.86;109455;1251;71427;-57
2024/02/16 05:15:06;;;;;;;10.30;8.30;;;;;;;9.49;50.93;101981.54;109441;1252;59131;-57
2024/02/16 05:17:34;;;;;;;9.00;7.10;;;;;;;9.50;50.72;101986.11;109456;1251;58919;-56
2024/02/16 05:20:01;;;;;;;11.10;8.10;;;;;;;9.45;50.79;101985.86;109434;1250;74685;-56
2024/02/16 05:22:30;;;;;;;10.50;8.00;;;;;;;9.43;50.64;101993.88;109387;1256;72849;-57
2024/02/16 05:24:58;;;;;;;11.60;6.80;;;;;;;9.38;50.76;101993.80;109415;1251;73154;-57
2024/02/16 05:27:26;;;;;;;11.10;7.20;;;;;;;9.32;50.89;101994.06;109426;1251;59404;-58
2024/02/16 05:29:54;;;;;;;10.40;6.80;;;;;;;9.35;51.05;101992.70;109421;1254;60084;-57
2024/02/16 05:32:22;;;;;;;10.50;7.50;;;;;;;9.38;51.01;101993.63;109415;1251;74742;-58
2024/02/16 05:34:50;;;;;;;10.80;7.50;;;;;;;9.40;51.09;101997.69;109388;1254;71389;-58
2024/02/16 05:37:20;;;;;;;13.80;7.60;;;;;;;9.45;50.87;102005.98;109395;1254;71695;-56
2024/02/16 05:39:56;;;;;;;11.10;8.10;;;;;;;9.48;50.76;102007.63;109427;1254;59094;-57
2024/02/16 05:42:25;;;;;;;14.90;8.00;;;;;;;9.55;50.76;102011.59;109106;1253;60266;-59
2024/02/16 05:44:52;;;;;;;12.70;7.60;;;;;;;9.60;50.57;102013.27;108962;1251;75031;-56
2024/02/16 05:47:20;;;;;;;11.10;7.30;;;;;;;9.60;50.34;102016.92;109421;1254;72865;-56
2024/02/16 05:49:48;;;;;;;10.30;8.30;;;;;;;9.58;50.18;102020.92;109391;1255;70920;-56
2024/02/16 05:52:18;;;;;;;10.40;6.70;;;;;;;9.54;50.35;102025.41;109182;1251;59494;-57
2024/02/16 05:54:49;;;;;;;12.10;7.50;;;;;;;9.52;50.12;102027.48;109399;1251;60098;-57
2024/02/16 05:57:18;;;;;;;9.00;7.30;;;;;;;9.46;50.04;102031.06;109381;1252;74697;-57
2024/02/16 05:59:45;;;;;;;8.70;6.60;;;;;;;9.42;50.12;102035.73;109417;1253;72706;-55
2024/02/16 06:02:15;;;;;;;9.30;7.00;;;;;;;9.43;50.29;102041.53;109067;1258;72737;-55
2024/02/16 06:04:42;;;;;;;10.80;7.40;;;;;;;9.46;50.26;102047.89;109374;1254;60126;-55
2024/02/16 06:07:11;;;;;;;10.80;7.40;;;;;;;9.49;50.05;102046.52;109071;1261;60063;-55
2024/02/16 06:09:39;;;;;;;10.20;7.20;;;;;;;9.47;50.09;102042.64;109448;1254;74147;-55
2024/02/16 06:12:09;;;;;;;10.80;7.60;;;;;;;9.49;50.19;102041.63;109402;1251;72266;-55
2024/02/16 06:14:37;;;;;;;12.80;7.20;;;;;;;9.52;49.88;102034.48;109154;1254;71630;-55
2024/02/16 06:17:05;;;;;;;11.00;7.50;;;;;;;9.49;49.84;102034.10;109369;1254;60085;-55
2024/02/16 06:19:35;;;;;;;10.00;7.20;;;;;;;9.51;49.92;102037.45;109402;1251;59032;-56
2024/02/16 06:22:03;;;;;;;11.60;8.10;;;;;;;9.50;49.90;102039.19;109204;1251;74842;-57
2024/02/16 06:24:30;;;;;;;10.80;7.80;;;;;;;9.53;50.14;102043.27;109161;1251;72829;-55
2024/02/16 06:26:58;;;;;;;10.70;6.80;;;;;;;9.53;50.37;102050.81;109275;1257;72735;-59
2024/02/16 06:29:26;;;;;;;11.40;8.50;;;;;;;9.55;50.33;102047.52;109386;1251;60434;-54
2024/02/16 06:31:56;;;;;;;8.90;7.00;;;;;;;9.53;50.06;102051.52;109504;1253;60043;-55
2024/02/16 06:34:23;;;;;;;11.60;7.80;;;;;;;9.49;50.04;102053.36;109510;1253;74645;-54
2024/02/16 06:36:51;;;;;;;14.40;8.40;;;;;;;9.46;50.04;102053.84;109467;1254;73149;-56
2024/02/16 06:39:19;;;;;;;11.20;7.70;;;;;;;9.48;49.92;102051.60;109474;1253;72769;-56
2024/02/16 06:41:47;;;;;;;12.40;7.60;;;;;;;9.50;49.63;102062.31;109120;1260;58922;-57
2024/02/16 06:44:16;;;;;;;9.30;7.20;;;;;;;9.44;49.58;102063.77;109500;1253;60088;-56
2024/02/16 06:46:48;;;;;;;10.90;6.40;;;;;;;9.38;49.55;102067.87;109524;1254;73453;-55
2024/02/16 06:49:15;;;;;;;9.80;7.00;;;;;;;9.35;49.71;102070.44;109524;1253;71672;-56
2024/02/16 06:51:44;;;;;;;7.80;6.10;;;;;;;9.37;49.78;102070.48;109388;1253;72135;-55
2024/02/16 06:54:14;;;;;;;12.80;7.20;;;;;;;9.43;49.53;102072.52;109437;1253;60285;-56
2024/02/16 06:56:44;;;;;;;10.10;6.80;;;;;;;9.38;49.52;102074.70;109579;1254;59285;-57
2024/02/16 06:59:11;;;;;;;11.40;7.00;;;;;;;9.38;49.62;102077.30;109443;1254;75645;-56
2024/02/16 07:01:39;;;;;;;11.30;6.90;;;;;;;9.40;49.51;102079.98;109538;1254;73210;-56
2024/02/16 07:04:07;;;;;;;9.80;7.20;;;;;;;9.44;49.59;102083.05;109465;1253;70638;-57
2024/02/16 07:06:35;;;;;;;8.30;5.90;;;;;;;9.53;49.49;102084.08;109461;1253;60105;-56
2024/02/16 07:09:06;;;;;;;9.70;6.70;;;;;;;9.62;49.06;102081.77;109516;1254;59368;-56
2024/02/16 07:11:34;;;;;;;9.60;7.40;;;;;;;9.59;48.93;102080.85;109527;1253;74675;-56
2024/02/16 07:14:03;;;;;;;8.20;6.10;;;;;;;9.58;49.01;102081.19;109549;1253;71857;-56
2024/02/16 07:16:32;;;;;;;8.90;6.50;;;;;;;9.60;48.88;102081.92;109306;1258;72808;-56
2024/02/16 07:19:00;;;;;;;8.40;6.60;;;;;;;9.59;48.82;102084.89;109166;1253;59131;-56
2024/02/16 07:21:28;;;;;;;9.60;6.50;;;;;;;9.55;48.84;102079.04;109356;1251;60280;-56
2024/02/16 07:23:55;;;;;;;10.40;6.90;;;;;;;9.51;48.91;102080.89;109200;1257;73438;-56
2024/02/16 07:26:23;;;;;;;9.40;7.00;;;;;;;9.50;48.68;102078.77;109522;1251;71927;-56
2024/02/16 07:28:50;;;;;;;10.20;7.10;;;;;;;9.47;48.91;102076.80;109497;1251;71925;-56
2024/02/16 07:31:18;;;;;;;9.60;6.60;;;;;;;9.53;48.90;102080.94;109285;1251;60117;-57
2024/02/16 07:33:46;;;;;;;14.10;7.40;;;;;;;9.54;48.72;102081.66;109555;1251;60085;-56
2024/02/16 07:36:14;;;;;;;12.10;6.80;;;;;;;9.60;48.82;102079.46;109139;1251;74252;-56
2024/02/16 07:38:41;;;;;;;9.60;6.60;;;;;;;9.72;48.80;102081.27;109453;1251;72668;-56
2024/02/16 07:41:09;;;;;;;10.20;6.80;;;;;;;9.87;48.70;102082.03;109369;1251;73078;-56
2024/02/16 07:43:38;;;;;;;9.70;6.50;;;;;;;9.99;48.35;102081.00;109536;1251;59953;-56
2024/02/16 07:46:08;;;;;;;11.80;7.50;;;;;;;10.07;47.94;102083.40;109107;1251;59673;-56
2024/02/16 07:48:36;;;;;;;10.70;6.90;;;;;;;10.03;47.59;102084.92;109483;1251;74174;-56
2024/02/16 07:51:04;;;;;;;13.80;7.40;;;;;;;10.02;47.56;102091.55;109504;1251;72222;-56
2024/02/16 07:53:33;;;;;;;10.10;7.30;;;;;;;9.95;47.39;102090.41;109569;1251;72723;-57
2024/02/16 07:56:01;;;;;;;11.70;7.30;;;;;;;9.88;47.54;102096.08;109513;1251;60344;-56
2024/02/16 07:58:29;;;;;;;10.10;7.10;;;;;;;9.85;47.68;102101.11;109176;1251;59020;-56
2024/02/16 08:00:56;;;;;;;10.40;7.70;;;;;;;9.83;47.54;102101.77;109495;1251;74257;-56
2024/02/16 08:03:24;;;;;;;11.30;8.00;;;;;;;9.80;47.64;102108.03;109524;1251;71734;-56
2024/02/16 08:05:52;;;;;;;10.80;8.40;;;;;;;9.81;47.56;102109.63;109538;1251;72025;-56
2024/02/16 08:08:20;;;;;;;12.80;9.10;;;;;;;9.75;47.57;102111.96;109557;1253;60160;-57
2024/02/16 08:10:48;;;;;;;12.80;9.00;;;;;;;9.69;47.55;102110.81;109548;1251;60233;-56
2024/02/16 08:13:18;;;;;;;12.10;8.70;;;;;;;9.64;47.92;102111.96;109310;1251;73909;-56
2024/02/16 08:15:45;;;;;;;14.70;8.90;;;;;;;9.64;47.85;102109.16;109541;1254;72069;-56
2024/02/16 08:18:13;;;;;;;13.90;9.20;;;;;;;9.62;48.06;102109.28;109469;1251;72725;-56
2024/02/16 08:20:41;;;;;;;14.10;10.20;;;;;;;9.64;48.09;102108.98;109535;1253;58962;-56
2024/02/16 08:23:09;;;;;;;12.50;9.30;;;;;;;9.71;48.12;102110.16;109443;1251;58984;-56
2024/02/16 08:25:36;;;;;;;15.00;9.90;;;;;;;9.75;47.82;102112.15;109224;1251;74718;-56
2024/02/16 08:28:04;;;;;;;13.80;9.50;;;;;;;9.73;47.91;102113.17;109556;1251;72304;-56
2024/02/16 08:30:33;;;;;;;14.10;10.10;;;;;;;9.78;47.68;102118.34;109521;1251;72704;-56
2024/02/16 08:33:01;;;;;;;12.80;8.60;;;;;;;9.79;47.72;102114.67;109453;1251;58929;-55
2024/02/16 08:35:29;;;;;;;14.30;9.40;;;;;;;9.85;47.66;102118.10;109563;1251;59145;-57
2024/02/16 08:37:57;;;;;;;12.90;8.80;;;;;;;9.95;47.64;102120.90;109527;1251;73716;-56
2024/02/16 08:40:25;;;;;;;13.40;9.60;;;;;;;10.05;47.23;102123.87;108979;1257;72953;-56
2024/02/16 08:42:52;;;;;;;12.40;9.40;;;;;;;10.09;47.08;102122.53;108802;1257;71733;-56
2024/02/16 08:45:20;;;;;;;13.20;9.70;;;;;;;10.09;46.66;102126.74;109031;1257;59111;-57
2024/02/16 08:47:49;;;;;;;13.20;9.10;;;;;;;9.99;46.76;102126.58;109044;1257;58883;-57
2024/02/16 08:50:19;;;;;;;12.20;9.60;;;;;;;9.93;46.87;102129.45;109059;1257;74923;-57
2024/02/16 08:52:47;;;;;;;17.10;10.60;;;;;;;9.92;46.94;102129.96;109030;1257;71985;-57
2024/02/16 08:55:16;;;;;;;12.70;9.30;;;;;;;9.85;46.96;102130.02;109028;1257;70642;-56
2024/02/16 08:57:43;;;;;;;11.40;8.60;;;;;;;9.77;47.12;102130.41;109072;1257;59872;-57
2024/02/16 09:00:12;;;;;;;16.50;10.30;;;;;;;9.73;47.27;102136.13;109506;1251;60136;-56
2024/02/16 09:02:39;;;;;;;13.40;10.10;;;;;;;9.70;47.37;102138.16;109141;1251;73489;-57
2024/02/16 09:05:09;;;;;;;17.80;10.60;;;;;;;9.75;47.39;102137.73;109549;1251;73307;-57
2024/02/16 09:07:37;;;;;;;13.00;9.20;;;;;;;9.81;47.30;102135.23;109370;1251;72740;-57
2024/02/16 09:10:05;;;;;;;15.60;10.40;;;;;;;9.86;47.02;102136.86;109519;1251;60415;-57
2024/02/16 09:12:34;;;;;;;16.70;10.50;;;;;;;9.80;46.93;102132.75;109557;1251;60458;-57
2024/02/16 09:15:02;;;;;;;13.90;10.30;;;;;;;9.74;47.17;102130.70;109133;1250;74774;-57
2024/02/16 09:17:29;;;;;;;14.70;9.80;;;;;;;9.71;47.02;102129.24;109489;1250;70819;-56
2024/02/16 09:19:57;;;;;;;15.10;10.10;;;;;;;9.67;47.10;102130.94;109219;1251;71608;-56
2024/02/16 09:22:25;;;;;;;12.00;9.30;;;;;;;9.67;46.96;102126.56;109513;1251;59736;-56
2024/02/16 09:24:59;;;;;;;16.50;10.90;;;;;;;9.68;47.10;102132.17;109552;1251;59214;-56
2024/02/16 09:27:27;;;;;;;12.90;9.20;;;;;;;9.73;46.76;102133.66;109529;1251;74330;-56
2024/02/16 09:29:55;;;;;;;13.70;9.60;;;;;;;9.70;46.67;102134.33;109508;1251;72365;-55
2024/02/16 09:32:23;;;;;;;12.40;9.00;;;;;;;9.64;46.78;102132.80;109533;1252;72106;-55
2024/02/16 09:34:51;;;;;;;15.00;10.40;;;;;;;9.63;46.97;102134.71;109514;1251;59645;-55
2024/02/16 09:37:19;;;;;;;12.40;9.00;;;;;;;9.65;46.84;102131.44;109530;1251;59453;-55
2024/02/16 09:39:47;;;;;;;11.30;9.10;;;;;;;9.63;46.69;102126.99;109533;1251;73176;-55
2024/02/16 09:42:16;;;;;;;16.50;10.00;;;;;;;9.57;46.94;102125.16;109369;1250;72829;-56
2024/02/16 09:44:44;;;;;;;17.30;9.80;;;;;;;9.59;47.07;102127.27;109397;1250;73046;-55
2024/02/16 09:47:12;;;;;;;14.20;10.10;;;;;;;9.59;46.75;102127.46;109407;1251;58938;-56
2024/02/16 09:49:40;;;;;;;13.30;9.70;;;;;;;9.52;46.88;102125.95;109527;1251;60866;-56
2024/02/16 09:52:12;;;;;;;16.50;9.60;;;;;;;9.51;47.01;102116.29;109550;1251;75166;-56
2024/02/16 09:54:40;;;;;;;11.70;9.00;;;;;;;9.56;47.02;102119.34;109186;1251;74053;-55
2024/02/16 09:57:08;;;;;;;15.70;10.80;;;;;;;9.61;47.00;102117.52;109475;1253;72476;-56
2024/02/16 09:59:36;;;;;;;16.50;11.30;;;;;;;9.64;46.90;102117.03;109537;1251;60066;-55
2024/02/16 10:02:07;;;;;;;14.50;10.60;;;;;;;9.70;46.73;102116.80;109191;1250;59060;-55
2024/02/16 10:04:35;;;;;;;15.30;10.40;;;;;;;9.72;46.74;102114.20;109542;1251;74956;-56
2024/02/16 10:07:05;;;;;;;13.70;9.70;;;;;;;9.76;46.65;102114.27;109544;1251;73080;-55
2024/02/16 10:09:40;;;;;;;16.50;10.50;;;;;;;9.83;46.71;102114.56;109531;1251;71222;-55
2024/02/16 10:12:09;;;;;;;13.90;11.00;;;;;;;9.95;46.67;102111.77;109515;1251;60337;-56
2024/02/16 10:14:40;;;;;;;13.80;10.00;;;;;;;10.03;46.19;102112.80;109556;1250;60419;-56
2024/02/16 10:17:09;;;;;;;13.70;9.20;;;;;;;9.97;45.92;102110.08;109593;1251;74856;-56
2024/02/16 10:19:40;;;;;;;11.40;9.20;;;;;;;9.86;45.97;102113.39;109525;1251;71650;-56
2024/02/16 10:22:10;;;;;;;15.10;9.30;;;;;;;9.72;46.00;102115.61;109512;1251;73391;-55
2024/02/16 10:24:39;;;;;;;11.90;8.80;;;;;;;9.63;46.13;102112.98;109510;1251;59038;-56
2024/02/16 10:27:15;;;;;;;12.70;9.50;;;;;;;9.54;46.18;102113.53;109569;1251;59888;-56
2024/02/16 10:29:49;;;;;;;16.30;9.30;;;;;;;9.43;46.37;102113.86;109524;1251;73915;-59
2024/02/16 10:32:17;;;;;;;9.50;8.10;;;;;;;9.41;46.51;102114.52;109586;1251;72430;-58
2024/02/16 10:34:45;;;;;;;12.90;8.60;;;;;;;9.45;46.53;102114.94;109182;1251;71911;-58
2024/02/16 10:37:14;;;;;;;12.10;9.10;;;;;;;9.43;46.46;102111.75;109326;1251;59912;-58
2024/02/16 10:39:42;;;;;;;13.30;8.30;;;;;;;9.37;46.45;102111.98;109124;1256;58997;-57
2024/02/16 10:42:09;;;;;;;10.60;8.00;;;;;;;9.30;46.41;102115.53;109282;1254;74766;-59
2024/02/16 10:44:40;;;;;;;10.80;8.30;;;;;;;9.19;46.55;102112.34;109042;1254;71902;-57
2024/02/16 10:47:08;;;;;;;10.40;8.50;;;;;;;9.12;46.78;102109.23;109070;1254;71479;-58
2024/02/16 10:49:36;;;;;;;11.80;8.40;;;;;;;9.08;46.78;102112.48;109145;1254;58950;-58
2024/02/16 10:52:04;;;;;;;10.60;8.50;;;;;;;9.00;47.02;102114.41;109227;1254;59108;-58
2024/02/16 10:54:33;;;;;;;12.30;8.90;;;;;;;8.97;47.25;102109.45;109099;1254;75068;-57
2024/02/16 10:57:02;;;;;;;11.80;8.70;;;;;;;9.06;47.50;102107.19;109025;1254;73751;-56
2024/02/16 10:59:37;;;;;;;11.30;8.90;;;;;;;9.23;47.31;102110.13;109028;1254;72972;-58
2024/02/16 11:02:06;;;;;;;10.80;9.10;;;;;;;9.42;46.95;102109.81;109177;1254;59865;-61
2024/02/16 11:04:40;;;;;;;11.30;8.00;;;;;;;9.54;46.61;102106.87;108950;1254;61122;-61
2024/02/16 11:07:12;;;;;;;10.30;8.50;;;;;;;9.59;46.37;102101.02;109243;1254;74749;-60
2024/02/16 11:10:04;;;;;;;16.40;9.30;;;;;;;9.65;46.18;102098.31;107273;1254;2572629;-60
2024/02/16 11:12:38;;;;;;;16.00;8.50;;;;;;;9.64;45.90;102095.67;109083;1256;72248;-61
2024/02/16 11:15:07;;;;;;;17.00;9.50;;;;;;;9.57;45.79;102095.89;109069;1257;59007;-59
2024/02/16 11:17:36;;;;;;;13.00;8.50;;;;;;;9.48;46.13;102097.83;108941;1257;59826;-59